createdAt,value
2022-11-12T00:00:04.073Z,45.40
2022-11-12T00:01:25.968Z,45.40
2022-11-12T00:02:47.073Z,45.40
2022-11-12T00:04:09.376Z,45.40
2022-11-12T00:05:34.097Z,45.40
2022-11-12T00:06:55.230Z,45.40
2022-11-12T00:08:16.804Z,45.40
2022-11-12T00:09:38.060Z,45.40
2022-11-12T00:11:01.511Z,45.40
2022-11-12T00:12:23.229Z,45.50
2022-11-12T00:15:19.727Z,45.40
2022-11-12T00:16:43.210Z,45.50
2022-11-12T00:18:09.116Z,45.40
2022-11-12T00:19:31.476Z,45.50
2022-11-12T00:20:52.386Z,45.40
2022-11-12T00:22:13.102Z,45.50
2022-11-12T00:23:34.078Z,45.50
2022-11-12T00:24:55.258Z,45.50
2022-11-12T00:26:16.326Z,45.50
2022-11-12T00:27:38.492Z,45.50
2022-11-12T00:28:59.515Z,45.50
2022-11-12T00:30:20.238Z,45.50
2022-11-12T00:31:41.495Z,45.50
2022-11-12T00:33:21.556Z,45.50
2022-11-12T00:34:42.649Z,45.50
2022-11-12T00:36:05.352Z,45.50
2022-11-12T00:37:26.561Z,45.50
2022-11-12T00:38:47.412Z,45.50
2022-11-12T00:40:09.356Z,45.50
2022-11-12T00:41:30.567Z,45.50
2022-11-12T00:42:54.259Z,45.50
2022-11-12T00:44:15.035Z,45.50
2022-11-12T00:45:37.710Z,45.50
2022-11-12T00:47:00.710Z,45.50
2022-11-12T00:48:21.758Z,45.50
2022-11-12T00:49:42.908Z,45.50
2022-11-12T00:51:05.587Z,45.50
2022-11-12T00:52:26.817Z,45.50
2022-11-12T00:53:53.457Z,46.10
2022-11-12T00:55:15.774Z,45.50
2022-11-12T00:56:37.032Z,45.50
2022-11-12T00:58:01.044Z,45.50
2022-11-12T00:59:29.791Z,45.50
2022-11-12T01:00:50.815Z,45.50
2022-11-12T01:02:11.927Z,45.50
2022-11-12T01:03:32.883Z,45.50
2022-11-12T01:04:53.800Z,45.50
2022-11-12T01:06:21.829Z,45.50
2022-11-12T01:07:49.370Z,45.50
2022-11-12T01:09:17.519Z,45.50
2022-11-12T01:10:39.735Z,45.50
2022-11-12T01:12:01.216Z,45.60
2022-11-12T01:13:25.674Z,45.60
2022-11-12T01:14:46.688Z,45.50
2022-11-12T01:16:12.221Z,45.50
2022-11-12T01:17:38.553Z,45.60
2022-11-12T01:19:02.564Z,45.50
2022-11-12T01:20:23.662Z,45.60
2022-11-12T01:21:46.634Z,45.50
2022-11-12T01:23:09.047Z,45.50
2022-11-12T01:24:31.142Z,45.50
2022-11-12T01:25:52.052Z,45.50
2022-11-12T01:27:13.006Z,45.60
2022-11-12T01:28:40.250Z,45.60
2022-11-12T01:30:01.300Z,45.50
2022-11-12T01:31:27.505Z,45.50
2022-11-12T01:32:50.884Z,45.50
2022-11-12T01:34:19.087Z,46.20
2022-11-12T01:35:59.832Z,45.60
2022-11-12T01:37:25.805Z,45.60
2022-11-12T01:38:49.168Z,45.60
2022-11-12T01:40:10.747Z,45.60
2022-11-12T01:41:36.721Z,45.60
2022-11-12T01:42:58.396Z,45.60
2022-11-12T01:44:26.793Z,45.50
2022-11-12T01:45:51.181Z,45.60
2022-11-12T01:47:23.866Z,45.60
2022-11-12T01:48:56.080Z,45.60
2022-11-12T01:50:33.999Z,45.60
2022-11-12T01:52:00.111Z,45.60
2022-11-12T01:53:26.051Z,45.60
2022-11-12T01:54:51.136Z,45.60
2022-11-12T01:56:16.361Z,45.60
2022-11-12T01:58:01.383Z,45.60
2022-11-12T01:59:28.544Z,45.60
2022-11-12T02:00:53.595Z,45.60
2022-11-12T02:02:16.801Z,45.60
2022-11-12T02:03:38.335Z,45.60
2022-11-12T02:05:03.093Z,45.60
2022-11-12T02:06:25.008Z,45.60
2022-11-12T02:08:02.650Z,45.60
2022-11-12T02:09:24.366Z,45.60
2022-11-12T02:10:45.706Z,45.60
2022-11-12T02:12:07.191Z,45.60
2022-11-12T02:14:00.801Z,45.60
2022-11-12T02:15:22.062Z,45.70
2022-11-12T02:16:45.767Z,45.60
2022-11-12T02:18:07.721Z,45.60
2022-11-12T02:19:29.614Z,45.60
2022-11-12T02:20:56.986Z,45.70
2022-11-12T02:22:18.380Z,45.60
2022-11-12T02:23:39.121Z,45.60
2022-11-12T02:25:00.439Z,45.60
2022-11-12T02:26:23.067Z,45.60
2022-11-12T02:27:45.202Z,45.60
2022-11-12T02:29:06.332Z,45.70
2022-11-12T02:30:33.928Z,45.70
2022-11-12T02:31:56.164Z,45.60
2022-11-12T02:33:17.630Z,45.60
2022-11-12T02:34:39.764Z,45.70
2022-11-12T02:36:00.565Z,45.60
2022-11-12T02:37:21.607Z,45.70
2022-11-12T02:38:42.909Z,45.70
2022-11-12T02:40:03.925Z,45.70
2022-11-12T02:41:26.264Z,45.60
2022-11-12T02:42:47.182Z,45.70
2022-11-12T02:44:08.549Z,45.70
2022-11-12T02:45:30.809Z,45.70
2022-11-12T02:46:52.034Z,45.70
2022-11-12T02:48:19.194Z,45.70
2022-11-12T02:49:40.500Z,45.70
2022-11-12T02:51:08.942Z,45.70
2022-11-12T02:52:34.838Z,45.70
2022-11-12T02:53:58.413Z,45.70
2022-11-12T02:55:20.061Z,45.70
2022-11-12T02:58:17.188Z,45.70
2022-11-12T02:59:38.053Z,45.70
2022-11-12T03:00:59.541Z,45.70
2022-11-12T03:02:21.018Z,45.70
2022-11-12T03:03:42.286Z,45.70
2022-11-12T03:05:03.356Z,45.70
2022-11-12T03:06:24.342Z,45.70
2022-11-12T03:07:45.472Z,45.70
2022-11-12T03:09:06.221Z,45.70
2022-11-12T03:10:27.775Z,45.70
2022-11-12T03:11:48.614Z,45.70
2022-11-12T03:13:10.137Z,45.80
2022-11-12T03:14:32.587Z,45.80
2022-11-12T03:16:02.332Z,45.70
2022-11-12T03:17:24.643Z,45.70
2022-11-12T03:18:45.460Z,45.80
2022-11-12T03:20:06.962Z,45.70
2022-11-12T03:21:28.165Z,45.70
2022-11-12T03:23:02.014Z,45.70
2022-11-12T03:24:24.772Z,45.80
2022-11-12T03:25:47.037Z,45.80
2022-11-12T03:27:11.946Z,45.70
2022-11-12T03:28:33.330Z,45.80
2022-11-12T03:29:54.366Z,45.80
2022-11-12T03:31:17.418Z,45.80
2022-11-12T03:32:42.236Z,45.80
2022-11-12T03:34:03.465Z,45.80
2022-11-12T03:35:25.071Z,45.80
2022-11-12T03:36:46.016Z,45.80
2022-11-12T03:38:09.167Z,45.80
2022-11-12T03:39:31.481Z,45.80
2022-11-12T03:40:52.981Z,45.80
2022-11-12T03:42:13.926Z,45.80
2022-11-12T03:43:35.675Z,45.80
2022-11-12T03:44:56.580Z,45.80
2022-11-12T03:46:18.990Z,45.80
2022-11-12T03:47:43.179Z,45.80
2022-11-12T03:49:05.097Z,45.80
2022-11-12T03:50:32.529Z,45.80
2022-11-12T03:51:53.614Z,45.80
2022-11-12T03:53:15.005Z,45.80
2022-11-12T03:54:36.097Z,45.80
2022-11-12T03:55:57.231Z,45.80
2022-11-12T03:57:18.774Z,45.80
2022-11-12T03:58:42.513Z,45.80
2022-11-12T04:00:07.184Z,45.80
2022-11-12T04:01:28.513Z,45.80
2022-11-12T04:02:50.085Z,45.80
2022-11-12T04:04:11.158Z,45.80
2022-11-12T04:05:52.835Z,45.80
2022-11-12T04:07:34.285Z,45.80
2022-11-12T04:08:57.285Z,45.90
2022-11-12T04:10:18.598Z,45.80
2022-11-12T04:11:41.258Z,45.80
2022-11-12T04:13:21.268Z,45.80
2022-11-12T04:14:44.715Z,45.80
2022-11-12T04:16:30.006Z,45.80
2022-11-12T04:18:09.810Z,45.80
2022-11-12T04:20:00.136Z,45.80
2022-11-12T04:21:40.091Z,45.80
2022-11-12T04:23:01.185Z,45.80
2022-11-12T04:24:45.828Z,45.80
2022-11-12T04:26:24.853Z,45.90
2022-11-12T04:27:46.103Z,45.80
2022-11-12T04:29:27.980Z,45.80
2022-11-12T04:30:50.515Z,45.80
2022-11-12T04:32:11.250Z,45.90
2022-11-12T04:33:32.292Z,45.80
2022-11-12T04:34:53.465Z,45.90
2022-11-12T04:36:35.877Z,46.40
2022-11-12T04:37:57.594Z,45.80
2022-11-12T04:39:21.255Z,45.90
2022-11-12T04:41:00.538Z,45.90
2022-11-12T04:42:40.263Z,45.80
2022-11-12T04:44:20.350Z,45.90
2022-11-12T04:45:43.714Z,45.90
2022-11-12T04:47:05.672Z,45.80
2022-11-12T04:48:27.414Z,45.90
2022-11-12T04:49:52.369Z,45.90
2022-11-12T04:51:32.101Z,45.80
2022-11-12T04:52:55.868Z,45.80
2022-11-12T04:54:18.007Z,45.90
2022-11-12T04:55:39.993Z,45.80
2022-11-12T04:57:01.881Z,45.80
2022-11-12T04:58:27.358Z,45.90
2022-11-12T04:59:51.205Z,45.80
2022-11-12T05:01:14.715Z,45.80
2022-11-12T05:02:37.078Z,45.80
2022-11-12T05:03:57.857Z,45.80
2022-11-12T05:05:19.049Z,45.90
2022-11-12T05:06:51.836Z,45.90
2022-11-12T05:08:19.831Z,45.80
2022-11-12T05:09:40.962Z,45.80
2022-11-12T05:11:02.888Z,45.80
2022-11-12T05:12:26.202Z,45.80
2022-11-12T05:13:47.474Z,45.80
2022-11-12T05:15:09.208Z,45.80
2022-11-12T05:16:30.700Z,45.90
2022-11-12T05:17:53.059Z,45.80
2022-11-12T05:19:17.776Z,45.80
2022-11-12T05:20:38.862Z,45.80
2022-11-12T05:22:06.556Z,45.80
2022-11-12T05:23:27.597Z,45.80
2022-11-12T05:24:49.129Z,45.80
2022-11-12T05:26:13.019Z,45.80
2022-11-12T05:27:34.324Z,45.80
2022-11-12T05:28:55.588Z,45.80
2022-11-12T05:30:16.842Z,46.40
2022-11-12T05:31:37.934Z,45.80
2022-11-12T05:33:13.878Z,45.80
2022-11-12T05:34:37.911Z,45.80
2022-11-12T05:36:00.482Z,45.80
2022-11-12T05:37:26.926Z,45.80
2022-11-12T05:38:48.154Z,45.80
2022-11-12T05:40:11.220Z,45.80
2022-11-12T05:41:58.041Z,45.80
2022-11-12T05:43:17.573Z,46.30
2022-11-12T05:44:38.300Z,45.80
2022-11-12T05:45:59.649Z,45.80
2022-11-12T05:47:20.786Z,45.80
2022-11-12T05:48:41.858Z,45.80
2022-11-12T05:50:07.380Z,45.80
2022-11-12T05:51:32.623Z,45.80
2022-11-12T05:52:55.941Z,45.80
2022-11-12T05:54:20.191Z,45.80
2022-11-12T05:55:46.542Z,45.80
2022-11-12T05:57:08.774Z,45.70
2022-11-12T05:58:31.301Z,45.80
2022-11-12T05:59:56.556Z,45.70
2022-11-12T06:01:18.816Z,45.70
2022-11-12T06:02:40.706Z,45.80
2022-11-12T06:04:03.453Z,45.70
2022-11-12T06:05:24.133Z,45.70
2022-11-12T06:06:46.261Z,45.60
2022-11-12T06:08:07.479Z,45.70
2022-11-12T06:09:34.108Z,45.70
2022-11-12T06:10:58.288Z,45.80
2022-11-12T06:12:19.162Z,45.70
2022-11-12T06:13:44.441Z,45.70
2022-11-12T06:15:07.146Z,45.70
2022-11-12T06:16:35.747Z,45.70
2022-11-12T06:17:57.587Z,45.70
2022-11-12T06:19:18.410Z,45.70
2022-11-12T06:20:39.765Z,45.60
2022-11-12T06:22:00.681Z,45.70
2022-11-12T06:23:22.513Z,45.60
2022-11-12T06:24:44.441Z,45.60
2022-11-12T06:26:05.760Z,45.70
2022-11-12T06:27:26.786Z,45.60
2022-11-12T06:28:53.022Z,45.60
2022-11-12T06:30:15.007Z,45.60
2022-11-12T06:31:41.865Z,45.60
2022-11-12T06:33:03.433Z,45.60
2022-11-12T06:34:26.693Z,45.60
2022-11-12T06:35:47.891Z,45.60
2022-11-12T06:37:08.756Z,45.60
2022-11-12T06:38:40.162Z,45.60
2022-11-12T06:40:04.604Z,45.60
2022-11-12T06:41:26.021Z,45.60
2022-11-12T06:42:47.185Z,45.60
2022-11-12T06:44:09.098Z,45.60
2022-11-12T06:45:32.639Z,45.60
2022-11-12T06:46:53.912Z,45.50
2022-11-12T06:48:16.646Z,45.60
2022-11-12T06:49:39.198Z,45.50
2022-11-12T06:51:16.129Z,45.50
2022-11-12T06:52:37.046Z,45.50
2022-11-12T06:53:58.413Z,45.50
2022-11-12T06:55:22.990Z,45.50
2022-11-12T06:56:47.714Z,45.50
2022-11-12T06:58:09.019Z,45.50
2022-11-12T06:59:31.320Z,45.50
2022-11-12T07:00:53.516Z,45.50
2022-11-12T07:02:17.563Z,45.50
2022-11-12T07:03:39.936Z,45.50
2022-11-12T07:05:03.465Z,45.50
2022-11-12T07:06:24.988Z,45.50
2022-11-12T07:07:50.179Z,45.50
2022-11-12T07:09:13.005Z,45.50
2022-11-12T07:10:38.884Z,45.40
2022-11-12T07:12:01.093Z,45.40
2022-11-12T07:13:24.943Z,45.50
2022-11-12T07:14:46.652Z,45.50
2022-11-12T07:16:10.793Z,45.40
2022-11-12T07:17:32.809Z,46.00
2022-11-12T07:18:54.033Z,45.40
2022-11-12T07:20:17.347Z,45.40
2022-11-12T07:21:38.539Z,45.40
2022-11-12T07:23:04.945Z,45.40
2022-11-12T07:24:32.610Z,45.40
2022-11-12T07:26:02.119Z,45.40
2022-11-12T07:27:23.646Z,45.40
2022-11-12T07:28:48.704Z,45.40
2022-11-12T07:30:11.582Z,45.40
2022-11-12T07:31:32.990Z,45.30
2022-11-12T07:32:58.312Z,45.30
2022-11-12T07:34:18.993Z,45.40
2022-11-12T07:35:41.145Z,45.30
2022-11-12T07:37:03.156Z,45.30
2022-11-12T07:38:27.303Z,45.30
2022-11-12T07:39:50.701Z,45.30
2022-11-12T07:41:17.334Z,45.30
2022-11-12T07:42:40.386Z,45.30
2022-11-12T07:44:01.625Z,45.30
2022-11-12T07:45:22.613Z,45.30
2022-11-12T07:46:44.670Z,45.20
2022-11-12T07:48:08.689Z,45.30
2022-11-12T07:49:29.859Z,45.20
2022-11-12T07:51:09.132Z,45.30
2022-11-12T07:52:33.283Z,45.20
2022-11-12T07:53:59.963Z,45.20
2022-11-12T07:55:27.306Z,45.10
2022-11-12T07:56:50.937Z,45.30
2022-11-12T07:58:11.962Z,45.20
2022-11-12T07:59:35.597Z,45.20
2022-11-12T08:00:58.965Z,45.30
2022-11-12T08:02:20.099Z,45.20
2022-11-12T08:03:49.252Z,45.50
2022-11-12T08:05:17.564Z,45.20
2022-11-12T08:06:43.679Z,45.20
2022-11-12T08:08:07.643Z,45.20
2022-11-12T08:09:29.575Z,45.20
2022-11-12T08:10:55.458Z,45.20
2022-11-12T08:12:20.012Z,45.20
2022-11-12T08:13:40.927Z,45.20
2022-11-12T08:15:02.413Z,45.20
2022-11-12T08:16:23.504Z,45.20
2022-11-12T08:17:50.222Z,45.10
2022-11-12T08:19:11.093Z,45.20
2022-11-12T08:20:34.810Z,45.10
2022-11-12T08:21:55.896Z,45.10
2022-11-12T08:23:23.290Z,45.10
2022-11-12T08:24:44.365Z,45.10
2022-11-12T08:26:07.565Z,45.10
2022-11-12T08:27:30.041Z,45.00
2022-11-12T08:28:53.143Z,45.10
2022-11-12T08:30:14.722Z,45.10
2022-11-12T08:31:36.068Z,45.10
2022-11-12T08:33:00.033Z,45.00
2022-11-12T08:34:22.789Z,45.00
2022-11-12T08:35:46.766Z,45.00
2022-11-12T08:37:09.123Z,45.00
2022-11-12T08:38:31.216Z,45.10
2022-11-12T08:40:00.153Z,45.00
2022-11-12T08:41:24.023Z,45.00
2022-11-12T08:42:44.899Z,45.00
2022-11-12T08:44:08.980Z,45.00
2022-11-12T08:45:36.154Z,45.00
2022-11-12T08:46:57.086Z,45.00
2022-11-12T08:48:19.289Z,45.00
2022-11-12T08:49:43.780Z,45.00
2022-11-12T08:51:11.915Z,45.00
2022-11-12T08:52:41.491Z,45.00
2022-11-12T08:54:05.013Z,45.00
2022-11-12T08:55:28.810Z,45.00
2022-11-12T08:56:49.780Z,45.00
2022-11-12T08:58:10.994Z,45.00
2022-11-12T08:59:35.624Z,45.00
2022-11-12T09:00:58.712Z,45.00
2022-11-12T09:02:22.174Z,45.00
2022-11-12T09:03:50.904Z,45.00
2022-11-12T09:05:13.160Z,44.90
2022-11-12T09:06:38.980Z,45.00
2022-11-12T09:08:05.816Z,45.00
2022-11-12T09:09:27.018Z,45.00
2022-11-12T09:10:48.594Z,44.90
2022-11-12T09:12:19.698Z,44.90
2022-11-12T09:15:36.884Z,45.00
2022-11-12T09:17:02.280Z,44.90
2022-11-12T09:18:23.027Z,44.90
2022-11-12T09:19:49.837Z,44.80
2022-11-12T09:21:14.064Z,44.90
2022-11-12T09:22:34.979Z,44.90
2022-11-12T09:23:58.306Z,45.20
2022-11-12T09:25:22.279Z,44.90
2022-11-12T09:26:45.065Z,44.80
2022-11-12T09:28:22.197Z,44.90
2022-11-12T09:29:47.697Z,44.90
2022-11-12T09:31:12.030Z,44.90
2022-11-12T09:32:37.804Z,44.90
2022-11-12T09:33:59.968Z,44.80
2022-11-12T09:35:21.069Z,44.90
2022-11-12T09:36:42.062Z,44.90
2022-11-12T09:38:03.562Z,44.90
2022-11-12T09:39:24.860Z,44.90
2022-11-12T09:40:53.248Z,44.90
2022-11-12T09:42:18.081Z,44.90
2022-11-12T09:43:49.674Z,44.80
2022-11-12T09:45:35.795Z,44.80
2022-11-12T09:47:25.137Z,44.80
2022-11-12T09:48:55.452Z,44.80
2022-11-12T09:50:20.384Z,44.90
2022-11-12T09:51:53.753Z,44.80
2022-11-12T09:53:19.121Z,44.70
2022-11-12T09:54:42.328Z,44.80
2022-11-12T09:56:12.721Z,44.80
2022-11-12T09:57:39.913Z,44.80
2022-11-12T09:59:02.105Z,44.70
2022-11-12T10:00:27.131Z,44.80
2022-11-12T10:02:07.042Z,44.80
2022-11-12T10:03:53.684Z,44.80
2022-11-12T10:05:32.217Z,44.80
2022-11-12T10:07:24.594Z,44.70
2022-11-12T10:09:12.471Z,44.70
2022-11-12T10:10:41.153Z,44.70
2022-11-12T10:12:37.549Z,44.70
2022-11-12T10:14:16.111Z,44.70
2022-11-12T10:16:02.681Z,44.80
2022-11-12T10:17:44.176Z,44.90
2022-11-12T10:19:19.869Z,44.70
2022-11-12T10:21:12.106Z,44.70
2022-11-12T10:22:55.166Z,44.70
2022-11-12T10:24:18.535Z,44.70
2022-11-12T10:25:42.491Z,44.70
2022-11-12T10:27:18.059Z,44.70
2022-11-12T10:29:03.876Z,44.60
2022-11-12T10:30:28.499Z,44.70
2022-11-12T10:31:49.489Z,44.60
2022-11-12T10:33:16.364Z,44.70
2022-11-12T10:34:39.420Z,44.70
2022-11-12T10:36:24.612Z,44.70
2022-11-12T10:37:58.958Z,44.70
2022-11-12T10:39:33.137Z,44.60
2022-11-12T10:40:57.331Z,44.70
2022-11-12T10:42:20.573Z,44.70
2022-11-12T10:44:00.050Z,44.60
2022-11-12T10:45:23.332Z,44.60
2022-11-12T10:46:43.971Z,44.70
2022-11-12T10:48:28.952Z,44.70
2022-11-12T10:50:09.328Z,45.30
2022-11-12T10:51:32.346Z,44.60
2022-11-12T10:53:00.040Z,44.60
2022-11-12T10:54:27.271Z,44.70
2022-11-12T10:56:06.017Z,44.60
2022-11-12T10:57:27.497Z,44.60
2022-11-12T10:59:24.765Z,44.60
2022-11-12T11:01:12.853Z,44.60
2022-11-12T11:02:37.131Z,44.60
2022-11-12T11:04:00.111Z,44.70
2022-11-12T11:05:33.388Z,44.70
2022-11-12T11:07:05.811Z,44.70
2022-11-12T11:08:47.025Z,44.60
2022-11-12T11:10:27.158Z,45.20
2022-11-12T11:11:55.159Z,44.60
2022-11-12T11:13:26.128Z,44.60
2022-11-12T11:15:26.579Z,45.20
2022-11-12T11:17:10.817Z,44.60
2022-11-12T11:18:41.051Z,44.60
2022-11-12T11:20:12.921Z,44.60
2022-11-12T11:21:48.875Z,44.50
2022-11-12T11:25:06.653Z,44.60
2022-11-12T11:26:52.315Z,44.60
2022-11-12T11:28:30.378Z,44.50
2022-11-12T11:30:13.798Z,44.60
2022-11-12T11:31:41.792Z,44.60
2022-11-12T11:33:14.021Z,44.50
2022-11-12T11:34:50.584Z,44.50
2022-11-12T11:36:22.110Z,44.50
2022-11-12T11:37:57.374Z,44.50
2022-11-12T11:39:52.996Z,44.60
2022-11-12T11:41:34.506Z,44.60
2022-11-12T11:43:20.056Z,44.60
2022-11-12T11:44:47.759Z,44.60
2022-11-12T11:46:42.844Z,44.50
2022-11-12T11:48:08.379Z,44.60
2022-11-12T11:49:47.178Z,44.60
2022-11-12T11:51:30.752Z,44.50
2022-11-12T11:53:14.561Z,44.60
2022-11-12T11:54:50.896Z,44.60
2022-11-12T11:56:31.912Z,44.50
2022-11-12T11:58:16.547Z,44.50
2022-11-12T11:59:38.291Z,44.50
2022-11-12T12:01:26.424Z,44.60
2022-11-12T12:03:12.363Z,44.50
2022-11-12T12:05:17.467Z,44.50
2022-11-12T12:07:05.168Z,44.50
2022-11-12T12:08:43.027Z,44.50
2022-11-12T12:10:20.513Z,44.50
2022-11-12T12:12:19.034Z,44.50
2022-11-12T12:13:49.705Z,44.50
2022-11-12T12:15:34.116Z,44.50
2022-11-12T12:17:14.865Z,44.50
2022-11-12T12:19:09.162Z,44.60
2022-11-12T12:20:49.343Z,44.50
2022-11-12T12:22:21.847Z,44.50
2022-11-12T12:23:50.577Z,44.50
2022-11-12T12:25:24.393Z,44.50
2022-11-12T12:26:57.095Z,44.50
2022-11-12T12:28:29.410Z,44.40
2022-11-12T12:29:59.625Z,44.80
2022-11-12T12:31:28.209Z,44.50
2022-11-12T12:33:02.480Z,44.50
2022-11-12T12:34:35.765Z,44.50
2022-11-12T12:36:03.225Z,44.50
2022-11-12T12:37:39.045Z,44.40
2022-11-12T12:39:14.500Z,44.40
2022-11-12T12:40:58.878Z,44.40
2022-11-12T12:42:35.133Z,44.40
2022-11-12T12:44:13.043Z,44.40
2022-11-12T12:45:42.347Z,44.50
2022-11-12T12:47:03.898Z,44.40
2022-11-12T12:48:37.850Z,44.40
2022-11-12T12:50:05.981Z,44.40
2022-11-12T12:51:31.131Z,44.40
2022-11-12T12:53:12.540Z,44.40
2022-11-12T12:54:37.658Z,44.40
2022-11-12T12:56:26.478Z,44.50
2022-11-12T12:57:47.572Z,44.40
2022-11-12T12:59:22.751Z,44.40
2022-11-12T13:00:53.057Z,44.40
2022-11-12T13:02:26.235Z,44.40
2022-11-12T13:03:55.715Z,44.40
2022-11-12T13:05:38.837Z,44.40
2022-11-12T13:07:00.105Z,44.40
2022-11-12T13:08:26.743Z,45.00
2022-11-12T13:09:48.205Z,44.40
2022-11-12T13:11:09.264Z,44.40
2022-11-12T13:13:01.751Z,44.40
2022-11-12T13:14:33.557Z,44.40
2022-11-12T13:15:57.045Z,44.40
2022-11-12T13:17:46.196Z,44.40
2022-11-12T13:19:10.202Z,44.40
2022-11-12T13:20:36.620Z,44.50
2022-11-12T13:22:19.394Z,44.40
2022-11-12T13:24:05.990Z,44.50
2022-11-12T13:25:30.057Z,44.40
2022-11-12T13:26:59.164Z,44.30
2022-11-12T13:28:21.478Z,44.40
2022-11-12T13:29:50.706Z,44.50
2022-11-12T13:31:28.191Z,44.30
2022-11-12T13:32:52.810Z,44.50
2022-11-12T13:34:26.393Z,45.00
2022-11-12T13:35:48.189Z,44.40
2022-11-12T13:37:20.210Z,44.30
2022-11-12T13:38:42.197Z,44.30
2022-11-12T13:40:06.065Z,44.40
2022-11-12T13:41:46.450Z,44.30
2022-11-12T13:43:12.340Z,44.40
2022-11-12T13:44:36.186Z,44.40
2022-11-12T13:46:15.328Z,44.40
2022-11-12T13:47:38.119Z,44.40
2022-11-12T13:49:01.922Z,44.30
2022-11-12T13:50:25.010Z,44.40
2022-11-12T13:51:53.083Z,44.40
2022-11-12T13:53:21.958Z,44.30
2022-11-12T13:54:44.092Z,44.30
2022-11-12T13:56:12.224Z,44.40
2022-11-12T13:57:33.406Z,44.40
2022-11-12T13:58:56.321Z,44.40
2022-11-12T14:00:31.917Z,44.30
2022-11-12T14:01:55.902Z,44.30
2022-11-12T14:03:19.301Z,44.40
2022-11-12T14:04:46.132Z,44.30
2022-11-12T14:06:33.999Z,44.40
2022-11-12T14:08:28.450Z,44.30
2022-11-12T14:10:25.044Z,44.30
2022-11-12T14:12:02.860Z,44.30
2022-11-12T14:13:52.639Z,44.30
2022-11-12T14:15:42.007Z,44.30
2022-11-12T14:17:42.470Z,44.40
2022-11-12T14:19:45.106Z,44.40
2022-11-12T14:21:21.185Z,44.30
2022-11-12T14:22:45.893Z,44.30
2022-11-12T14:24:17.166Z,44.30
2022-11-12T14:25:58.388Z,44.30
2022-11-12T14:27:28.611Z,44.30
2022-11-12T14:28:59.836Z,44.30
2022-11-12T14:30:32.258Z,44.30
2022-11-12T14:32:15.153Z,44.30
2022-11-12T14:33:39.673Z,44.30
2022-11-12T14:35:00.395Z,44.30
2022-11-12T14:36:22.270Z,44.30
2022-11-12T14:37:50.318Z,44.30
2022-11-12T14:39:14.782Z,44.30
2022-11-12T14:40:45.366Z,44.40
2022-11-12T14:42:13.826Z,44.40
2022-11-12T14:44:12.606Z,44.30
2022-11-12T14:45:35.523Z,44.30
2022-11-12T14:46:58.871Z,44.30
2022-11-12T14:48:19.959Z,44.30
2022-11-12T14:49:45.425Z,44.30
2022-11-12T14:51:11.494Z,44.30
2022-11-12T14:52:40.759Z,44.30
2022-11-12T14:54:08.966Z,44.30
2022-11-12T14:55:41.503Z,44.30
2022-11-12T14:57:06.202Z,44.40
2022-11-12T14:58:29.111Z,44.30
2022-11-12T14:59:51.513Z,44.30
2022-11-12T15:02:08.855Z,44.30
2022-11-12T15:03:15.356Z,44.30
2022-11-12T15:04:41.260Z,44.30
2022-11-12T15:06:02.213Z,44.30
2022-11-12T15:07:36.608Z,44.30
2022-11-12T15:09:00.648Z,44.30
2022-11-12T15:10:34.489Z,44.30
2022-11-12T15:11:55.590Z,44.30
2022-11-12T15:13:21.002Z,44.30
2022-11-12T15:14:42.085Z,44.30
2022-11-12T15:16:09.953Z,44.30
2022-11-12T15:17:37.070Z,44.30
2022-11-12T15:19:23.418Z,44.30
2022-11-12T15:20:44.957Z,44.30
2022-11-12T15:22:05.868Z,44.30
2022-11-12T15:23:29.445Z,44.30
2022-11-12T15:24:50.648Z,44.30
2022-11-12T15:26:24.588Z,44.30
2022-11-12T15:27:51.482Z,44.40
2022-11-12T15:29:25.651Z,44.30
2022-11-12T15:31:04.187Z,44.30
2022-11-12T15:32:27.833Z,44.40
2022-11-12T15:33:49.086Z,44.30
2022-11-12T15:35:26.316Z,44.40
2022-11-12T15:36:47.278Z,44.30
2022-11-12T15:38:27.018Z,44.30
2022-11-12T15:39:55.231Z,44.30
2022-11-12T15:41:27.602Z,44.30
2022-11-12T15:42:48.790Z,44.30
2022-11-12T15:44:15.022Z,44.30
2022-11-12T15:45:37.602Z,44.30
2022-11-12T15:46:59.915Z,44.40
2022-11-12T15:48:23.861Z,44.30
2022-11-12T15:49:55.999Z,44.30
2022-11-12T15:51:19.779Z,44.30
2022-11-12T15:52:41.481Z,44.30
2022-11-12T15:54:05.155Z,44.30
2022-11-12T15:55:28.197Z,44.30
2022-11-12T15:56:53.235Z,44.30
2022-11-12T15:58:19.645Z,44.30
2022-11-12T15:59:45.453Z,44.30
2022-11-12T16:01:12.519Z,44.30
2022-11-12T16:02:38.120Z,44.30
2022-11-12T16:03:59.280Z,44.30
2022-11-12T16:05:20.294Z,44.30
2022-11-12T16:06:41.746Z,44.30
2022-11-12T16:08:06.058Z,44.30
2022-11-12T16:09:27.543Z,44.40
2022-11-12T16:10:55.546Z,44.30
2022-11-12T16:12:19.424Z,44.30
2022-11-12T16:13:42.322Z,44.30
2022-11-12T16:15:03.572Z,44.30
2022-11-12T16:16:24.618Z,44.30
2022-11-12T16:17:46.584Z,44.30
2022-11-12T16:19:14.894Z,44.30
2022-11-12T16:20:36.808Z,44.30
2022-11-12T16:21:57.755Z,44.30
2022-11-12T16:23:19.024Z,44.30
2022-11-12T16:24:43.324Z,44.30
2022-11-12T16:26:09.073Z,44.30
2022-11-12T16:27:45.104Z,44.30
2022-11-12T16:29:15.546Z,44.30
2022-11-12T16:30:39.430Z,44.30
2022-11-12T16:32:00.252Z,44.30
2022-11-12T16:33:25.332Z,44.30
2022-11-12T16:34:49.090Z,44.30
2022-11-12T16:36:14.539Z,44.30
2022-11-12T16:37:39.605Z,44.30
2022-11-12T16:39:00.571Z,44.30
2022-11-12T16:40:26.607Z,44.30
2022-11-12T16:41:50.213Z,44.30
2022-11-12T16:43:14.967Z,44.30
2022-11-12T16:44:56.142Z,44.30
2022-11-12T16:46:31.189Z,44.30
2022-11-12T16:47:55.167Z,44.30
2022-11-12T16:49:23.416Z,44.30
2022-11-12T16:50:49.224Z,44.30
2022-11-12T16:52:15.592Z,44.30
2022-11-12T16:53:39.184Z,44.30
2022-11-12T16:55:05.140Z,44.30
2022-11-12T16:56:26.705Z,44.30
2022-11-12T16:57:48.121Z,44.40
2022-11-12T16:59:14.862Z,44.30
2022-11-12T17:00:35.997Z,44.30
2022-11-12T17:01:59.411Z,44.30
2022-11-12T17:03:20.496Z,44.30
2022-11-12T17:04:42.316Z,44.40
2022-11-12T17:06:06.478Z,44.30
2022-11-12T17:07:35.244Z,44.30
2022-11-12T17:08:58.257Z,44.30
2022-11-12T17:10:25.338Z,44.40
2022-11-12T17:11:49.224Z,44.30
2022-11-12T17:13:14.333Z,44.40
2022-11-12T17:14:37.215Z,44.30
2022-11-12T17:15:59.400Z,44.30
2022-11-12T17:17:23.454Z,44.30
2022-11-12T17:18:47.610Z,44.30
2022-11-12T17:20:10.220Z,45.00
2022-11-12T17:21:32.583Z,44.40
2022-11-12T17:22:55.336Z,44.30
2022-11-12T17:24:16.343Z,44.30
2022-11-12T17:25:40.262Z,44.30
2022-11-12T17:27:07.366Z,44.30
2022-11-12T17:28:30.144Z,44.40
2022-11-12T17:29:51.053Z,44.40
2022-11-12T17:31:16.209Z,44.30
2022-11-12T17:32:39.698Z,45.00
2022-11-12T17:34:03.107Z,44.40
2022-11-12T17:35:24.101Z,44.40
2022-11-12T17:36:46.114Z,44.30
2022-11-12T17:38:07.029Z,44.40
2022-11-12T17:39:29.167Z,44.30
2022-11-12T17:40:55.417Z,44.30
2022-11-12T17:42:16.072Z,44.30
2022-11-12T17:43:38.048Z,44.40
2022-11-12T17:44:59.611Z,44.40
2022-11-12T17:46:23.960Z,44.30
2022-11-12T17:47:45.195Z,44.30
2022-11-12T17:49:07.849Z,44.30
2022-11-12T17:50:28.901Z,44.30
2022-11-12T17:51:49.979Z,44.30
2022-11-12T17:53:11.470Z,44.40
2022-11-12T17:54:32.211Z,44.30
2022-11-12T17:55:59.248Z,44.30
2022-11-12T17:57:20.075Z,44.30
2022-11-12T17:58:42.225Z,44.40
2022-11-12T18:00:04.058Z,44.30
2022-11-12T18:01:26.432Z,44.30
2022-11-12T18:02:47.407Z,44.30
2022-11-12T18:04:10.409Z,44.30
2022-11-12T18:05:31.631Z,44.30
2022-11-12T18:06:53.842Z,44.30
2022-11-12T18:08:17.766Z,44.30
2022-11-12T18:09:41.765Z,44.30
2022-11-12T18:11:08.704Z,44.30
2022-11-12T18:12:29.981Z,44.40
2022-11-12T18:13:50.939Z,44.30
2022-11-12T18:15:17.788Z,44.30
2022-11-12T18:16:43.661Z,44.30
2022-11-12T18:18:05.001Z,44.30
2022-11-12T18:19:31.036Z,44.30
2022-11-12T18:20:52.071Z,44.40
2022-11-12T18:22:16.695Z,44.30
2022-11-12T18:23:43.800Z,44.30
2022-11-12T18:25:06.269Z,44.30
2022-11-12T18:26:28.443Z,44.30
2022-11-12T18:27:58.492Z,44.40
2022-11-12T18:29:22.372Z,44.30
2022-11-12T18:30:53.255Z,44.30
2022-11-12T18:32:15.345Z,44.30
2022-11-12T18:33:37.536Z,44.30
2022-11-12T18:35:05.444Z,44.30
2022-11-12T18:36:26.841Z,44.30
2022-11-12T18:37:47.701Z,44.30
2022-11-12T18:39:09.411Z,44.30
2022-11-12T18:40:32.004Z,44.30
2022-11-12T18:41:55.297Z,44.20
2022-11-12T18:43:16.039Z,44.40
2022-11-12T18:44:38.705Z,44.30
2022-11-12T18:46:00.418Z,44.30